createdAt,value
2019-01-14T00:00:37.298Z,92697.27
2019-01-14T00:03:04.718Z,92704.20
2019-01-14T00:05:32.079Z,92684.41
2019-01-14T00:07:59.421Z,92680.20
2019-01-14T00:10:26.795Z,92678.24
2019-01-14T00:12:54.158Z,92690.33
2019-01-14T00:15:21.725Z,92682.04
2019-01-14T00:17:49.221Z,92669.66
2019-01-14T00:20:16.578Z,92661.53
2019-01-14T00:22:43.984Z,92663.15
2019-01-14T00:25:11.368Z,92666.72
2019-01-14T00:27:38.747Z,92674.27
2019-01-14T00:30:07.230Z,92683.13
2019-01-14T00:32:34.603Z,92685.14
2019-01-14T00:35:01.970Z,92689.19
2019-01-14T00:37:29.319Z,92681.81
2019-01-14T00:39:56.753Z,92689.82
2019-01-14T00:42:24.186Z,92703.05
2019-01-14T00:44:51.568Z,92708.73
2019-01-14T00:47:18.986Z,92717.06
2019-01-14T00:49:46.343Z,92728.94
2019-01-14T00:52:14.069Z,92725.42
2019-01-14T00:54:41.450Z,92740.36
2019-01-14T00:57:08.966Z,92759.38
2019-01-14T00:59:36.351Z,92763.27
2019-01-14T01:02:03.741Z,92751.45
2019-01-14T01:04:33.210Z,92757.12
2019-01-14T01:07:00.857Z,92744.55
2019-01-14T01:09:28.210Z,92747.52
2019-01-14T01:11:55.618Z,92746.61
2019-01-14T01:14:23.018Z,92752.40
2019-01-14T01:16:50.402Z,92749.58
2019-01-14T01:19:17.799Z,92756.50
2019-01-14T01:21:45.230Z,92772.91
2019-01-14T01:24:12.675Z,92771.05
2019-01-14T01:26:40.026Z,92772.35
2019-01-14T01:29:07.407Z,92778.06
2019-01-14T01:31:34.853Z,92771.11
2019-01-14T01:34:02.221Z,92768.24
2019-01-14T01:36:31.979Z,92775.08
2019-01-14T01:38:58.920Z,92776.70
2019-01-14T01:41:26.531Z,92776.02
2019-01-14T01:43:53.931Z,92786.38
2019-01-14T01:46:21.298Z,92800.30
2019-01-14T01:48:48.646Z,92798.36
2019-01-14T01:51:16.030Z,92804.19
2019-01-14T01:53:43.401Z,92807.46
2019-01-14T01:56:10.763Z,92804.80
2019-01-14T01:58:38.247Z,92821.59
2019-01-14T02:01:05.595Z,92826.77
2019-01-14T02:03:33.003Z,92818.67
2019-01-14T02:06:00.345Z,92812.89
2019-01-14T02:08:27.807Z,92816.48
2019-01-14T02:10:55.202Z,92820.70
2019-01-14T02:13:22.599Z,92821.02
2019-01-14T02:15:50.307Z,92818.44
2019-01-14T02:18:17.668Z,92835.59
2019-01-14T02:20:45.183Z,92846.20
2019-01-14T02:23:12.575Z,92839.28
2019-01-14T02:25:39.918Z,92849.64
2019-01-14T02:28:07.309Z,92857.25
2019-01-14T02:30:34.795Z,92860.66
2019-01-14T02:33:02.156Z,92863.69
2019-01-14T02:35:29.535Z,92862.40
2019-01-14T02:37:56.880Z,92859.16
2019-01-14T02:40:24.271Z,92868.55
2019-01-14T02:42:51.643Z,92858.47
2019-01-14T02:45:19.014Z,92869.45
2019-01-14T02:47:46.484Z,92862.67
2019-01-14T02:50:13.966Z,92856.48
2019-01-14T02:52:41.349Z,92862.48
2019-01-14T02:55:09.034Z,92863.94
2019-01-14T02:57:36.400Z,92866.56
2019-01-14T03:00:05.815Z,92871.42
2019-01-14T03:02:33.206Z,92881.79
2019-01-14T03:05:00.785Z,92880.09
2019-01-14T03:07:28.289Z,92882.23
2019-01-14T03:09:55.684Z,92888.59
2019-01-14T03:12:23.093Z,92882.12
2019-01-14T03:14:50.769Z,92884.71
2019-01-14T03:17:18.166Z,92883.77
2019-01-14T03:19:45.504Z,92899.00
2019-01-14T03:22:12.897Z,92895.72
2019-01-14T03:24:40.250Z,92903.86
2019-01-14T03:27:07.639Z,92893.53
2019-01-14T03:29:35.109Z,92898.70
2019-01-14T03:32:02.555Z,92903.89
2019-01-14T03:34:30.323Z,92906.77
2019-01-14T03:37:05.285Z,92905.96
2019-01-14T03:39:26.967Z,92913.22
2019-01-14T03:41:54.438Z,92920.12
2019-01-14T03:44:21.814Z,92926.23
2019-01-14T03:46:49.151Z,92936.28
2019-01-14T03:49:16.529Z,92938.55
2019-01-14T03:51:43.918Z,92937.58
2019-01-14T03:54:11.705Z,92947.58
2019-01-14T03:56:39.162Z,92952.44
2019-01-14T03:59:06.516Z,92951.14
2019-01-14T04:01:33.874Z,92959.25
2019-01-14T04:04:01.214Z,92964.10
2019-01-14T04:06:28.617Z,92972.81
2019-01-14T04:08:56.004Z,92969.90
2019-01-14T04:11:23.454Z,92971.16
2019-01-14T04:13:50.862Z,92976.38
2019-01-14T04:16:18.214Z,92981.92
2019-01-14T04:18:45.601Z,92986.64
2019-01-14T04:21:12.951Z,92990.06
2019-01-14T04:23:40.327Z,92987.61
2019-01-14T04:26:07.692Z,93000.13
2019-01-14T04:28:35.160Z,93008.50
2019-01-14T04:31:02.552Z,93019.67
2019-01-14T04:33:30.019Z,93019.22
2019-01-14T04:35:57.365Z,93014.95
2019-01-14T04:38:24.731Z,93018.56
2019-01-14T04:40:52.210Z,93013.39
2019-01-14T04:43:19.565Z,93019.21
2019-01-14T04:45:46.917Z,93011.75
2019-01-14T04:48:14.300Z,93007.72
2019-01-14T04:50:41.642Z,93018.91
2019-01-14T04:53:09.013Z,93025.89
2019-01-14T04:55:36.399Z,93027.66
2019-01-14T04:58:03.762Z,93033.47
2019-01-14T05:00:31.154Z,93040.94
2019-01-14T05:02:58.544Z,93040.63
2019-01-14T05:05:25.929Z,93057.80
2019-01-14T05:07:53.266Z,93059.77
2019-01-14T05:10:20.673Z,93053.94
2019-01-14T05:12:48.063Z,93053.62
2019-01-14T05:15:15.505Z,93072.56
2019-01-14T05:17:42.905Z,93075.97
2019-01-14T05:20:12.415Z,93077.25
2019-01-14T05:22:39.747Z,93077.28
2019-01-14T05:25:07.394Z,93081.45
2019-01-14T05:27:34.781Z,93073.37
2019-01-14T05:30:02.357Z,93070.45
2019-01-14T05:32:29.851Z,93070.80
2019-01-14T05:34:57.225Z,93061.75
2019-01-14T05:37:24.669Z,93064.63
2019-01-14T05:39:52.045Z,93070.75
2019-01-14T05:42:19.382Z,93078.22
2019-01-14T05:44:46.991Z,93083.42
2019-01-14T05:47:14.345Z,93085.69
2019-01-14T05:49:41.715Z,93086.67
2019-01-14T05:52:09.340Z,93081.49
2019-01-14T05:54:36.676Z,93086.67
2019-01-14T05:57:04.027Z,93088.92
2019-01-14T05:59:31.415Z,93082.77
2019-01-14T06:01:58.783Z,93084.23
2019-01-14T06:04:26.166Z,93088.79
2019-01-14T06:06:53.653Z,93086.02
2019-01-14T06:09:21.373Z,93083.09
2019-01-14T06:11:48.837Z,93086.02
2019-01-14T06:14:16.307Z,93085.06
2019-01-14T06:16:43.707Z,93087.34
2019-01-14T06:19:11.078Z,93089.59
2019-01-14T06:21:38.486Z,93088.94
2019-01-14T06:24:05.827Z,93092.84
2019-01-14T06:26:33.563Z,93086.38
2019-01-14T06:29:01.030Z,93084.59
2019-01-14T06:31:28.398Z,93088.94
2019-01-14T06:33:55.790Z,93088.63
2019-01-14T06:36:23.215Z,93094.28
2019-01-14T06:38:50.558Z,93099.94
2019-01-14T06:41:17.947Z,93096.20
2019-01-14T06:43:45.375Z,93106.73
2019-01-14T06:46:12.756Z,93108.99
2019-01-14T06:48:40.159Z,93102.52
2019-01-14T06:51:07.807Z,93114.01
2019-01-14T06:53:35.158Z,93124.34
2019-01-14T06:56:02.529Z,93139.70
2019-01-14T06:58:30.291Z,93145.54
2019-01-14T07:00:57.634Z,93153.30
2019-01-14T07:03:24.980Z,93168.82
2019-01-14T07:05:52.517Z,93181.09
2019-01-14T07:08:19.871Z,93173.98
2019-01-14T07:10:47.252Z,93179.50
2019-01-14T07:13:14.640Z,93193.09
2019-01-14T07:15:42.018Z,93188.55
2019-01-14T07:18:09.391Z,93195.68
2019-01-14T07:20:36.827Z,93189.20
2019-01-14T07:23:04.266Z,93180.81
2019-01-14T07:25:31.620Z,93189.88
2019-01-14T07:27:59.082Z,93201.36
2019-01-14T07:30:26.445Z,93208.31
2019-01-14T07:32:53.826Z,93211.87
2019-01-14T07:35:21.302Z,93223.03
2019-01-14T07:37:48.667Z,93226.13
2019-01-14T07:40:17.167Z,93231.27
2019-01-14T07:42:44.546Z,93226.58
2019-01-14T07:45:12.667Z,93222.18
2019-01-14T07:47:40.011Z,93220.56
2019-01-14T07:50:08.627Z,93220.89
2019-01-14T07:52:36.058Z,93227.84
2019-01-14T07:55:03.602Z,93230.28
2019-01-14T07:57:30.953Z,93246.13
2019-01-14T07:59:58.310Z,93250.34
2019-01-14T08:02:25.805Z,93251.61
2019-01-14T08:04:53.146Z,93250.35
2019-01-14T08:07:20.509Z,93242.59
2019-01-14T08:09:47.886Z,93246.77
2019-01-14T08:12:15.247Z,93265.55
2019-01-14T08:14:42.829Z,93265.17
2019-01-14T08:17:10.405Z,93266.17
2019-01-14T08:19:37.898Z,93257.45
2019-01-14T08:22:05.243Z,93273.93
2019-01-14T08:24:32.639Z,93284.84
2019-01-14T08:26:59.972Z,93289.00
2019-01-14T08:29:27.364Z,93294.84
2019-01-14T08:31:54.762Z,93303.58
2019-01-14T08:34:22.199Z,93311.63
2019-01-14T08:36:49.559Z,93315.84
2019-01-14T08:39:16.953Z,93322.66
2019-01-14T08:41:50.887Z,93323.92
2019-01-14T08:44:19.345Z,93322.56
2019-01-14T08:46:46.726Z,93316.67
2019-01-14T08:49:14.106Z,93318.91
2019-01-14T08:51:41.482Z,93315.71
2019-01-14T08:54:08.955Z,93313.92
2019-01-14T08:56:36.287Z,93314.78
2019-01-14T08:59:03.627Z,93320.67
2019-01-14T09:01:31.014Z,93319.23
2019-01-14T09:03:58.406Z,93319.98
2019-01-14T09:06:25.759Z,93315.99
2019-01-14T09:08:53.135Z,93326.26
2019-01-14T09:11:20.518Z,93323.45
2019-01-14T09:13:47.874Z,93342.53
2019-01-14T09:16:15.222Z,93347.89
2019-01-14T09:18:42.665Z,93353.45
2019-01-14T09:21:10.027Z,93361.41
2019-01-14T09:23:37.524Z,93365.28
2019-01-14T09:26:04.964Z,93370.31
2019-01-14T09:28:32.427Z,93367.38
2019-01-14T09:30:59.807Z,93374.82
2019-01-14T09:33:27.533Z,93363.31
2019-01-14T09:35:54.905Z,93368.19
2019-01-14T09:38:22.289Z,93370.78
2019-01-14T09:40:49.662Z,93377.44
2019-01-14T09:43:17.106Z,93377.45
2019-01-14T09:45:44.471Z,93380.05
2019-01-14T09:48:11.860Z,93374.53
2019-01-14T09:50:39.251Z,93383.30
2019-01-14T09:53:06.643Z,93389.45
2019-01-14T09:55:33.994Z,93381.96
2019-01-14T09:58:01.391Z,93383.90
2019-01-14T10:00:28.734Z,93381.63
2019-01-14T10:02:56.090Z,93380.69
2019-01-14T10:05:23.517Z,93384.89
2019-01-14T10:07:50.859Z,93373.89
2019-01-14T10:10:18.967Z,93379.70
2019-01-14T10:12:46.414Z,93384.91
2019-01-14T10:15:17.863Z,93388.48
2019-01-14T10:17:46.910Z,93377.78
2019-01-14T10:20:14.284Z,93381.35
2019-01-14T10:22:41.623Z,93370.97
2019-01-14T10:25:09.073Z,93366.11
2019-01-14T10:27:36.478Z,93366.92
2019-01-14T10:30:05.257Z,93365.61
2019-01-14T10:32:32.617Z,93369.82
2019-01-14T10:35:00.002Z,93363.20
2019-01-14T10:37:27.375Z,93365.78
2019-01-14T10:39:54.782Z,93368.72
2019-01-14T10:42:22.138Z,93380.84
2019-01-14T10:44:49.513Z,93383.61
2019-01-14T10:47:16.964Z,93373.57
2019-01-14T10:49:44.323Z,93380.05
2019-01-14T10:52:11.749Z,93396.58
2019-01-14T10:54:39.189Z,93383.60
2019-01-14T10:57:06.568Z,93387.33
2019-01-14T10:59:33.927Z,93383.59
2019-01-14T11:02:01.314Z,93384.56
2019-01-14T11:04:28.662Z,93384.89
2019-01-14T11:06:56.007Z,93381.64
2019-01-14T11:09:23.389Z,93382.78
2019-01-14T11:11:50.734Z,93382.63
2019-01-14T11:14:18.130Z,93381.34
2019-01-14T11:16:45.479Z,93382.46
2019-01-14T11:19:12.830Z,93380.69
2019-01-14T11:21:40.243Z,93367.39
2019-01-14T11:24:07.621Z,93366.11
2019-01-14T11:26:35.034Z,93374.84
2019-01-14T11:29:02.399Z,93371.47
2019-01-14T11:31:29.790Z,93364.81
2019-01-14T11:33:57.130Z,93371.63
2019-01-14T11:36:24.521Z,93372.27
2019-01-14T11:38:51.891Z,93370.33
2019-01-14T11:41:19.929Z,93366.75
2019-01-14T11:43:47.286Z,93368.22
2019-01-14T11:46:14.684Z,93356.86
2019-01-14T11:48:42.079Z,93366.42
2019-01-14T11:51:09.470Z,93364.16
2019-01-14T11:53:37.236Z,93365.13
2019-01-14T11:56:04.614Z,93369.02
2019-01-14T11:58:31.970Z,93376.48
2019-01-14T12:00:59.470Z,93371.30
2019-01-14T12:03:26.827Z,93381.64
2019-01-14T12:05:54.250Z,93379.38
2019-01-14T12:08:21.611Z,93385.86
2019-01-14T12:10:48.948Z,93385.86
2019-01-14T12:13:16.340Z,93383.91
2019-01-14T12:15:43.711Z,93394.61
2019-01-14T12:18:11.112Z,93387.47
2019-01-14T12:20:38.474Z,93382.64
2019-01-14T12:23:05.920Z,93382.28
2019-01-14T12:25:33.306Z,93380.02
2019-01-14T12:28:00.762Z,93386.84
2019-01-14T12:30:32.590Z,93400.13
2019-01-14T12:33:00.727Z,93395.75
2019-01-14T12:35:28.374Z,93395.25
2019-01-14T12:37:55.778Z,93396.56
2019-01-14T12:40:25.075Z,93391.05
2019-01-14T12:42:52.434Z,93391.20
2019-01-14T12:45:20.134Z,93392.66
2019-01-14T12:47:47.508Z,93381.00
2019-01-14T12:50:14.914Z,93391.38
2019-01-14T12:52:42.364Z,93389.77
2019-01-14T12:55:10.009Z,93374.84
2019-01-14T12:57:37.434Z,93373.89
2019-01-14T13:00:06.610Z,93378.60
2019-01-14T13:02:34.086Z,93379.23
2019-01-14T13:05:01.540Z,93370.97
2019-01-14T13:07:28.945Z,93376.66
2019-01-14T13:09:56.298Z,93388.48
2019-01-14T13:12:23.690Z,93382.95
2019-01-14T13:14:51.049Z,93390.72
2019-01-14T13:17:18.439Z,93376.15
2019-01-14T13:19:45.789Z,93375.95
2019-01-14T13:22:13.335Z,93377.10
2019-01-14T13:24:40.715Z,93382.13
2019-01-14T13:27:08.114Z,93380.03
2019-01-14T13:29:35.621Z,93382.31
2019-01-14T13:32:03.035Z,93397.53
2019-01-14T13:34:30.491Z,93388.44
2019-01-14T13:36:57.967Z,93393.63
2019-01-14T13:39:25.349Z,93402.72
2019-01-14T13:41:52.750Z,93402.54
2019-01-14T13:44:20.202Z,93400.09
2019-01-14T13:46:47.591Z,93400.45
2019-01-14T13:49:14.998Z,93393.80
2019-01-14T13:51:46.849Z,93399.95
2019-01-14T13:54:11.674Z,93406.25
2019-01-14T13:56:39.099Z,93407.21
2019-01-14T13:59:06.514Z,93419.53
2019-01-14T14:01:33.915Z,93421.94
2019-01-14T14:04:01.358Z,93428.23
2019-01-14T14:06:28.706Z,93428.87
2019-01-14T14:08:56.118Z,93428.24
2019-01-14T14:11:23.586Z,93425.98
2019-01-14T14:13:50.994Z,93435.67
2019-01-14T14:16:18.389Z,93440.67
2019-01-14T14:18:45.750Z,93442.48
2019-01-14T14:21:13.127Z,93440.70
2019-01-14T14:23:40.546Z,93440.85
2019-01-14T14:26:07.906Z,93444.74
2019-01-14T14:28:35.297Z,93446.37
2019-01-14T14:31:02.676Z,93460.58
2019-01-14T14:33:30.075Z,93469.17
2019-01-14T14:35:57.441Z,93473.80
2019-01-14T14:38:24.928Z,93477.08
2019-01-14T14:40:52.426Z,93474.48
2019-01-14T14:43:20.053Z,93483.73
2019-01-14T14:45:47.457Z,93492.61
2019-01-14T14:48:14.808Z,93495.82
2019-01-14T14:50:42.225Z,93495.47
2019-01-14T14:53:09.595Z,93492.87
2019-01-14T14:55:36.983Z,93504.17
2019-01-14T14:58:04.349Z,93505.82
2019-01-14T15:00:33.278Z,93504.81
2019-01-14T15:03:00.806Z,93506.56
2019-01-14T15:05:28.175Z,93501.85
2019-01-14T15:07:55.671Z,93512.58
2019-01-14T15:10:23.138Z,93516.80
2019-01-14T15:12:50.728Z,93526.20
2019-01-14T15:15:20.190Z,93517.05
2019-01-14T15:17:47.599Z,93536.75
2019-01-14T15:20:15.653Z,93536.02
2019-01-14T15:22:43.248Z,93547.17
2019-01-14T15:25:10.657Z,93550.31
2019-01-14T15:27:38.069Z,93561.08
2019-01-14T15:30:09.306Z,93579.02
2019-01-14T15:32:36.663Z,93587.33
2019-01-14T15:35:04.080Z,93599.22
2019-01-14T15:37:31.563Z,93602.67
2019-01-14T15:40:03.251Z,93604.39
2019-01-14T15:42:28.285Z,93609.05
2019-01-14T15:44:55.669Z,93609.62
2019-01-14T15:47:23.070Z,93617.88
2019-01-14T15:49:50.618Z,93625.25
2019-01-14T15:52:18.382Z,93631.38
2019-01-14T15:54:45.794Z,93642.59
2019-01-14T15:57:13.235Z,93646.40
2019-01-14T15:59:40.655Z,93662.07
2019-01-14T16:02:08.297Z,93662.59
2019-01-14T16:04:35.709Z,93661.20
2019-01-14T16:07:03.257Z,93674.42
2019-01-14T16:09:30.695Z,93679.30
2019-01-14T16:11:58.327Z,93688.81
2019-01-14T16:14:25.781Z,93698.41
2019-01-14T16:16:54.015Z,93707.48
2019-01-14T16:19:21.429Z,93715.78
2019-01-14T16:21:48.885Z,93714.53
2019-01-14T16:24:16.271Z,93721.20
2019-01-14T16:26:43.631Z,93729.23
2019-01-14T16:29:11.042Z,93723.48
2019-01-14T16:31:38.393Z,93731.77
2019-01-14T16:34:05.799Z,93733.72
2019-01-14T16:36:33.274Z,93737.37
2019-01-14T16:39:00.619Z,93732.58
2019-01-14T16:41:28.087Z,93739.20
2019-01-14T16:43:55.870Z,93734.72
2019-01-14T16:46:23.277Z,93740.97
2019-01-14T16:48:50.828Z,93752.44
2019-01-14T16:51:18.286Z,93751.36
2019-01-14T16:53:45.710Z,93759.80
2019-01-14T16:56:13.188Z,93761.52
2019-01-14T16:58:40.631Z,93768.51
2019-01-14T17:01:08.026Z,93764.23
2019-01-14T17:03:35.420Z,93773.20
2019-01-14T17:06:02.891Z,93771.00
2019-01-14T17:08:30.286Z,93770.88
2019-01-14T17:10:57.650Z,93759.44
2019-01-14T17:13:25.150Z,93767.58
2019-01-14T17:15:52.590Z,93766.63
2019-01-14T17:18:20.124Z,93776.97
2019-01-14T17:20:47.541Z,93783.75
2019-01-14T17:23:14.963Z,93790.48
2019-01-14T17:25:42.350Z,93794.70
2019-01-14T17:28:09.876Z,93796.60
2019-01-14T17:30:37.297Z,93806.65
2019-01-14T17:33:04.741Z,93811.82
2019-01-14T17:35:32.150Z,93808.38
2019-01-14T17:37:59.595Z,93808.02
2019-01-14T17:40:32.434Z,93807.33
2019-01-14T17:42:56.257Z,93803.80
2019-01-14T17:45:23.689Z,93805.81
2019-01-14T17:47:51.121Z,93803.30
2019-01-14T17:50:18.933Z,93819.63
2019-01-14T17:52:46.517Z,93816.24
2019-01-14T17:55:14.023Z,93821.03
2019-01-14T17:57:41.388Z,93832.25
2019-01-14T18:00:10.629Z,93824.48
2019-01-14T18:02:38.018Z,93828.02
2019-01-14T18:05:05.654Z,93827.94
2019-01-14T18:07:33.050Z,93834.45
2019-01-14T18:10:00.806Z,93834.14
2019-01-14T18:12:28.226Z,93842.51
2019-01-14T18:14:55.682Z,93846.34
2019-01-14T18:17:23.244Z,93845.18
2019-01-14T18:19:50.620Z,93847.81
2019-01-14T18:22:17.994Z,93850.53
2019-01-14T18:24:45.399Z,93852.16
2019-01-14T18:27:12.850Z,93868.06
2019-01-14T18:29:40.271Z,93872.03
2019-01-14T18:32:07.669Z,93875.84
2019-01-14T18:34:35.188Z,93877.60
2019-01-14T18:37:02.631Z,93878.34
2019-01-14T18:39:30.100Z,93877.73
2019-01-14T18:41:57.488Z,93884.25
2019-01-14T18:44:24.899Z,93886.90
2019-01-14T18:46:52.406Z,93889.09
2019-01-14T18:49:19.791Z,93886.44
2019-01-14T18:51:47.213Z,93896.45
2019-01-14T18:54:14.626Z,93893.41
2019-01-14T18:56:41.988Z,93892.33
2019-01-14T18:59:09.395Z,93895.13
2019-01-14T19:01:36.802Z,93895.76
2019-01-14T19:04:04.291Z,93899.30
2019-01-14T19:06:31.794Z,93909.69
2019-01-14T19:08:59.175Z,93913.86
2019-01-14T19:11:26.622Z,93911.27
2019-01-14T19:13:54.210Z,93911.87
2019-01-14T19:16:21.706Z,93908.81
2019-01-14T19:18:49.089Z,93903.52
2019-01-14T19:21:16.574Z,93908.88
2019-01-14T19:23:44.080Z,93910.18
2019-01-14T19:26:11.616Z,93909.11
2019-01-14T19:28:39.068Z,93913.72
2019-01-14T19:31:06.531Z,93915.20
2019-01-14T19:33:33.973Z,93912.34
2019-01-14T19:36:01.341Z,93920.92
2019-01-14T19:38:28.723Z,93922.27
2019-01-14T19:41:01.829Z,93926.44
2019-01-14T19:43:26.671Z,93934.41
2019-01-14T19:45:54.257Z,93941.83
2019-01-14T19:48:21.701Z,93942.35
2019-01-14T19:50:49.160Z,93950.17
2019-01-14T19:53:16.584Z,93950.45
2019-01-14T19:55:44.051Z,93946.63
2019-01-14T19:58:11.521Z,93953.73
2019-01-14T20:00:38.881Z,93960.11
2019-01-14T20:03:06.513Z,93967.39
2019-01-14T20:05:34.007Z,93967.20
2019-01-14T20:08:01.550Z,93966.52
2019-01-14T20:10:29.068Z,93967.33
2019-01-14T20:12:56.494Z,93967.75
2019-01-14T20:15:23.894Z,93970.39
2019-01-14T20:17:51.394Z,93977.55
2019-01-14T20:20:18.878Z,93976.57
2019-01-14T20:22:46.329Z,93981.42
2019-01-14T20:25:13.813Z,93984.61
2019-01-14T20:27:41.214Z,93987.48
2019-01-14T20:30:11.010Z,93995.24
2019-01-14T20:32:38.375Z,93990.67
2019-01-14T20:35:05.802Z,93989.91
2019-01-14T20:37:33.257Z,93992.75
2019-01-14T20:40:00.677Z,93991.40
2019-01-14T20:42:28.220Z,93991.17
2019-01-14T20:44:55.657Z,93991.92
2019-01-14T20:47:23.153Z,94000.46
2019-01-14T20:49:50.519Z,93998.56
2019-01-14T20:52:17.953Z,94000.34
2019-01-14T20:54:45.403Z,94006.80
2019-01-14T20:57:12.845Z,94005.39
2019-01-14T20:59:40.416Z,93999.46
2019-01-14T21:02:07.820Z,94009.45
2019-01-14T21:04:35.204Z,94017.20
2019-01-14T21:07:02.641Z,94015.32
2019-01-14T21:09:30.010Z,94019.41
2019-01-14T21:11:57.418Z,94017.48
2019-01-14T21:14:24.960Z,94018.08
2019-01-14T21:16:52.366Z,94020.05
2019-01-14T21:19:19.789Z,94026.17
2019-01-14T21:21:47.191Z,94027.33
2019-01-14T21:24:14.622Z,94029.22
2019-01-14T21:26:42.102Z,94032.70
2019-01-14T21:29:09.494Z,94035.04
2019-01-14T21:31:36.902Z,94026.88
2019-01-14T21:34:04.288Z,94021.53
2019-01-14T21:36:31.792Z,94023.45
2019-01-14T21:38:59.162Z,94021.39
2019-01-14T21:41:31.139Z,94023.00
2019-01-14T21:43:55.892Z,94022.86
2019-01-14T21:46:23.329Z,94021.91
2019-01-14T21:48:50.728Z,94024.60
2019-01-14T21:51:18.127Z,94013.58
2019-01-14T21:53:45.507Z,94009.28
2019-01-14T21:56:12.884Z,94001.53
2019-01-14T21:58:40.409Z,94006.80
2019-01-14T22:01:07.920Z,94017.05
2019-01-14T22:03:35.262Z,94014.70
2019-01-14T22:06:02.695Z,94012.64
2019-01-14T22:08:30.125Z,94022.11
2019-01-14T22:10:57.957Z,94032.34
2019-01-14T22:13:25.406Z,94033.98
2019-01-14T22:15:52.832Z,94049.20
2019-01-14T22:18:20.259Z,94041.37
2019-01-14T22:20:47.674Z,94055.10
2019-01-14T22:23:15.124Z,94053.00
2019-01-14T22:25:42.495Z,94063.56
2019-01-14T22:28:09.990Z,94075.44
2019-01-14T22:30:37.409Z,94081.31
2019-01-14T22:33:04.847Z,94087.96
2019-01-14T22:35:32.339Z,94093.20
2019-01-14T22:38:01.524Z,94082.17
2019-01-14T22:40:29.213Z,94091.20
2019-01-14T22:42:56.663Z,94094.14
2019-01-14T22:45:24.063Z,94101.97
2019-01-14T22:47:51.650Z,94093.95
2019-01-14T22:50:19.251Z,94092.77
2019-01-14T22:52:46.783Z,94099.70
2019-01-14T22:55:14.238Z,94100.52
2019-01-14T22:57:41.748Z,94098.68
2019-01-14T23:01:01.626Z,94110.84
2019-01-14T23:03:28.998Z,94110.06
2019-01-14T23:05:56.431Z,94102.31
2019-01-14T23:08:23.799Z,94108.61
2019-01-14T23:10:51.301Z,94111.19
2019-01-14T23:13:18.808Z,94106.97
2019-01-14T23:15:46.366Z,94108.96
2019-01-14T23:18:13.730Z,94115.06
2019-01-14T23:20:41.331Z,94117.48
2019-01-14T23:23:11.793Z,94118.67
2019-01-14T23:25:39.290Z,94123.33
2019-01-14T23:28:06.683Z,94123.33
2019-01-14T23:30:34.190Z,94126.84
2019-01-14T23:33:01.599Z,94123.52
2019-01-14T23:35:29.107Z,94125.83
2019-01-14T23:37:56.547Z,94129.12
2019-01-14T23:40:24.029Z,94123.75
2019-01-14T23:42:51.746Z,94125.83
2019-01-14T23:45:19.182Z,94131.07
2019-01-14T23:47:46.567Z,94137.80
2019-01-14T23:50:14.080Z,94138.98
2019-01-14T23:52:41.579Z,94134.52
2019-01-14T23:55:09.078Z,94135.77
2019-01-14T23:57:36.651Z,94138.81
